createdAt,value
2017-11-06T00:02:05.480Z,65.50
2017-11-06T00:04:33.535Z,65.60
2017-11-06T00:07:01.599Z,67.20
2017-11-06T00:09:29.672Z,67.30
2017-11-06T00:11:57.714Z,66.50
2017-11-06T00:14:26.187Z,67.50
2017-11-06T00:16:54.244Z,66.30
2017-11-06T00:19:22.297Z,64.60
2017-11-06T00:21:50.365Z,64.00
2017-11-06T00:24:18.434Z,64.40
2017-11-06T00:26:47.246Z,65.30
2017-11-06T00:29:15.299Z,64.90
2017-11-06T00:31:43.375Z,64.90
2017-11-06T00:34:11.423Z,65.50
2017-11-06T00:36:39.490Z,64.60
2017-11-06T00:39:07.542Z,65.60
2017-11-06T00:41:37.106Z,65.10
2017-11-06T00:44:05.918Z,64.30
2017-11-06T00:46:33.995Z,65.90
2017-11-06T00:49:02.066Z,64.30
2017-11-06T00:51:30.191Z,65.50
2017-11-06T00:53:58.242Z,64.20
2017-11-06T00:56:26.302Z,63.10
2017-11-06T00:58:55.135Z,67.70
2017-11-06T01:01:23.958Z,64.80
2017-11-06T01:03:52.112Z,64.30
2017-11-06T01:06:20.554Z,61.90
2017-11-06T01:08:48.618Z,64.50
2017-11-06T01:11:16.670Z,65.90
2017-11-06T01:13:45.511Z,63.60
2017-11-06T01:16:13.559Z,64.30
2017-11-06T01:18:41.619Z,65.50
2017-11-06T01:21:09.676Z,66.00
2017-11-06T01:23:38.505Z,63.70
2017-11-06T01:26:06.560Z,66.40
2017-11-06T01:28:34.610Z,66.80
2017-11-06T01:31:03.446Z,66.50
2017-11-06T01:33:31.494Z,66.80
2017-11-06T01:36:00.310Z,68.10
2017-11-06T01:38:28.386Z,66.90
2017-11-06T01:40:56.434Z,64.50
2017-11-06T01:43:24.486Z,66.60
2017-11-06T01:45:54.054Z,66.30
2017-11-06T01:48:22.119Z,67.10
2017-11-06T01:50:50.167Z,67.20
2017-11-06T01:53:18.235Z,68.70
2017-11-06T01:55:46.291Z,69.50
2017-11-06T01:58:14.756Z,69.40
2017-11-06T02:00:43.604Z,70.40
2017-11-06T02:03:13.162Z,70.30
2017-11-06T02:05:41.223Z,69.50
2017-11-06T02:08:10.067Z,69.60
2017-11-06T02:10:38.119Z,68.80
2017-11-06T02:13:07.302Z,69.10
2017-11-06T02:15:35.367Z,66.10
2017-11-06T02:18:03.447Z,65.00
2017-11-06T02:20:31.513Z,65.10
2017-11-06T02:22:59.570Z,66.30
2017-11-06T02:25:28.397Z,67.70
2017-11-06T02:27:56.452Z,67.10
2017-11-06T02:30:24.522Z,65.80
2017-11-06T02:32:52.574Z,66.50
2017-11-06T02:35:21.394Z,67.20
2017-11-06T02:37:50.951Z,66.10
2017-11-06T02:40:19.059Z,66.90
2017-11-06T02:42:47.110Z,66.70
2017-11-06T02:45:15.913Z,68.10
2017-11-06T02:47:44.038Z,67.90
2017-11-06T02:50:12.083Z,70.50
2017-11-06T02:52:40.138Z,69.80
2017-11-06T02:55:08.500Z,70.40
2017-11-06T02:57:36.551Z,72.20
2017-11-06T03:00:05.358Z,73.80
2017-11-06T03:02:34.187Z,74.30
2017-11-06T03:05:02.241Z,74.80
2017-11-06T03:07:30.697Z,74.30
2017-11-06T03:09:58.746Z,74.10
2017-11-06T03:12:26.798Z,75.00
2017-11-06T03:14:55.624Z,75.50
2017-11-06T03:17:24.065Z,75.70
2017-11-06T03:19:52.125Z,76.30
2017-11-06T03:22:20.233Z,77.20
2017-11-06T03:24:48.676Z,77.40
2017-11-06T03:27:16.730Z,77.20
2017-11-06T03:29:44.789Z,76.80
2017-11-06T03:32:12.891Z,76.50
2017-11-06T03:34:41.683Z,77.00
2017-11-06T03:37:10.489Z,77.60
2017-11-06T03:39:38.546Z,77.40
2017-11-06T03:42:06.615Z,77.50
2017-11-06T03:44:34.658Z,77.90
2017-11-06T03:47:03.485Z,78.50
2017-11-06T03:49:31.533Z,78.20
2017-11-06T03:51:59.616Z,77.10
2017-11-06T03:54:27.645Z,76.60
2017-11-06T03:56:55.698Z,78.20
2017-11-06T03:59:24.544Z,78.10
2017-11-06T04:01:52.595Z,78.20
2017-11-06T04:04:21.046Z,78.20
2017-11-06T04:06:49.886Z,78.30
2017-11-06T04:09:17.938Z,78.80
2017-11-06T04:11:45.990Z,80.10
2017-11-06T04:14:14.821Z,79.90
2017-11-06T04:16:42.869Z,79.50
2017-11-06T04:19:11.702Z,80.20
2017-11-06T04:21:39.762Z,80.50
2017-11-06T04:24:08.954Z,80.60
2017-11-06T04:26:37.033Z,81.20
2017-11-06T04:29:05.087Z,82.20
2017-11-06T04:31:33.901Z,81.50
2017-11-06T04:34:01.989Z,81.50
2017-11-06T04:36:30.030Z,81.90
2017-11-06T04:38:58.087Z,82.00
2017-11-06T04:41:27.042Z,81.70
2017-11-06T04:43:55.873Z,82.20
2017-11-06T04:46:23.943Z,81.30
2017-11-06T04:48:51.989Z,81.70
2017-11-06T04:51:20.062Z,82.00
2017-11-06T04:53:48.147Z,82.00
2017-11-06T04:56:16.935Z,82.70
2017-11-06T04:58:45.007Z,82.10
2017-11-06T05:01:13.066Z,81.70
2017-11-06T05:03:41.525Z,81.60
2017-11-06T05:06:10.357Z,82.60
2017-11-06T05:08:38.418Z,82.70
2017-11-06T05:11:06.882Z,82.60
2017-11-06T05:13:35.025Z,83.60
2017-11-06T05:16:03.114Z,84.20
2017-11-06T05:18:31.939Z,84.60
2017-11-06T05:20:59.985Z,84.10
2017-11-06T05:23:28.454Z,84.00
2017-11-06T05:25:57.271Z,83.80
2017-11-06T05:28:25.334Z,83.50
2017-11-06T05:30:53.408Z,84.20
2017-11-06T05:33:21.462Z,83.50
2017-11-06T05:35:51.062Z,84.00
2017-11-06T05:38:20.701Z,84.20
2017-11-06T05:40:48.755Z,83.80
2017-11-06T05:45:46.149Z,85.30
2017-11-06T05:48:14.211Z,84.40
2017-11-06T05:50:42.257Z,83.80
2017-11-06T05:53:10.344Z,83.40
2017-11-06T05:58:08.499Z,89.70
2017-11-06T06:00:36.582Z,87.00
2017-11-06T06:03:04.642Z,89.00
2017-11-06T06:05:32.719Z,90.00
2017-11-06T06:08:00.783Z,89.60
2017-11-06T06:10:28.854Z,86.60
2017-11-06T06:12:56.929Z,87.40
2017-11-06T06:15:25.001Z,87.30
2017-11-06T06:17:54.590Z,87.00
2017-11-06T06:20:22.665Z,87.60
2017-11-06T06:22:51.845Z,86.00
2017-11-06T06:25:19.955Z,85.80
2017-11-06T06:27:48.041Z,84.00
2017-11-06T06:30:16.093Z,84.00
2017-11-06T06:32:44.185Z,82.20
2017-11-06T06:35:12.325Z,81.60
2017-11-06T06:37:41.842Z,82.60
2017-11-06T06:40:09.918Z,83.80
2017-11-06T06:42:37.981Z,85.20
2017-11-06T06:45:06.066Z,83.10
2017-11-06T06:47:34.133Z,82.50
2017-11-06T06:50:02.209Z,81.20
2017-11-06T06:52:30.365Z,85.20
2017-11-06T06:54:58.377Z,85.10
2017-11-06T06:57:27.218Z,84.90
2017-11-06T06:59:55.269Z,82.20
2017-11-06T07:02:23.338Z,80.90
2017-11-06T07:04:51.398Z,83.30
2017-11-06T07:07:19.462Z,80.50
2017-11-06T07:09:48.284Z,80.20
2017-11-06T07:12:17.117Z,77.20
2017-11-06T07:14:45.185Z,81.10
2017-11-06T07:17:13.254Z,80.70
2017-11-06T07:19:41.324Z,79.70
2017-11-06T07:22:09.385Z,82.20
2017-11-06T07:24:37.451Z,83.30
2017-11-06T07:27:06.270Z,81.70
2017-11-06T07:29:34.726Z,80.80
2017-11-06T07:32:02.781Z,79.90
2017-11-06T07:34:30.875Z,78.30
2017-11-06T07:36:58.957Z,71.60
2017-11-06T07:39:27.009Z,70.00
2017-11-06T07:41:55.869Z,62.10
2017-11-06T07:44:23.932Z,58.60
2017-11-06T07:46:51.982Z,56.80
2017-11-06T07:49:21.210Z,51.40
2017-11-06T07:51:49.261Z,50.60
2017-11-06T07:54:18.095Z,48.40
2017-11-06T07:56:46.333Z,40.20
2017-11-06T07:59:14.393Z,45.80
2017-11-06T08:01:43.246Z,41.40
2017-11-06T08:04:11.315Z,43.50
2017-11-06T08:06:39.761Z,42.40
2017-11-06T08:09:08.602Z,40.90
2017-11-06T08:11:36.658Z,38.20
2017-11-06T08:14:04.722Z,36.30
2017-11-06T08:16:32.797Z,34.00
2017-11-06T08:19:01.245Z,33.40
2017-11-06T08:21:30.081Z,35.10
2017-11-06T08:23:58.134Z,32.70
2017-11-06T08:26:26.226Z,32.00
2017-11-06T08:28:54.306Z,32.20
2017-11-06T08:31:22.761Z,31.60
2017-11-06T08:33:50.830Z,30.50
2017-11-06T08:36:18.889Z,28.60
2017-11-06T08:38:47.341Z,29.40
2017-11-06T08:41:16.205Z,32.20
2017-11-06T08:43:44.268Z,28.20
2017-11-06T08:46:12.353Z,32.10
2017-11-06T08:48:41.211Z,29.60
2017-11-06T08:51:09.270Z,28.40
2017-11-06T08:53:37.334Z,28.00
2017-11-06T08:56:05.419Z,27.30
2017-11-06T08:58:33.482Z,25.70
2017-11-06T09:01:01.544Z,24.20
2017-11-06T09:03:29.610Z,22.90
2017-11-06T09:05:57.682Z,21.90
2017-11-06T09:10:55.072Z,23.50
2017-11-06T09:13:23.529Z,22.50
2017-11-06T09:15:51.978Z,23.40
2017-11-06T09:18:20.050Z,21.50
2017-11-06T09:20:48.106Z,21.10
2017-11-06T09:23:16.166Z,21.00
2017-11-06T09:25:44.229Z,23.50
2017-11-06T09:28:12.294Z,21.20
2017-11-06T09:30:40.352Z,22.90
2017-11-06T09:33:08.435Z,23.10
2017-11-06T09:35:36.516Z,20.90
2017-11-06T09:38:04.566Z,19.40
2017-11-06T09:40:32.623Z,20.20
2017-11-06T09:43:01.555Z,18.10
2017-11-06T09:45:30.345Z,20.50
2017-11-06T09:47:58.804Z,19.30
2017-11-06T09:50:26.899Z,19.00
2017-11-06T09:52:55.946Z,19.90
2017-11-06T09:55:24.798Z,22.60
2017-11-06T09:57:52.853Z,23.10
2017-11-06T10:00:20.927Z,25.30
2017-11-06T10:02:48.973Z,25.50
2017-11-06T10:05:17.084Z,25.30
2017-11-06T10:10:14.440Z,24.20
2017-11-06T10:12:42.498Z,22.60
2017-11-06T10:15:10.553Z,22.00
2017-11-06T10:17:40.128Z,18.40
2017-11-06T10:20:08.186Z,21.10
2017-11-06T10:22:36.255Z,23.00
2017-11-06T10:25:04.311Z,23.60
2017-11-06T10:27:32.394Z,23.10
2017-11-06T10:30:00.450Z,19.20
2017-11-06T10:32:28.911Z,18.90
2017-11-06T10:34:57.750Z,19.90
2017-11-06T10:37:25.803Z,19.80
2017-11-06T10:39:53.878Z,18.40
2017-11-06T10:42:21.939Z,18.00
2017-11-06T10:44:50.002Z,15.90
2017-11-06T10:47:18.088Z,17.50
2017-11-06T10:49:46.137Z,20.60
2017-11-06T10:52:14.198Z,22.20
2017-11-06T10:54:43.025Z,23.50
2017-11-06T10:57:11.084Z,22.10
2017-11-06T10:59:39.154Z,18.90
2017-11-06T11:02:07.216Z,16.20
2017-11-06T11:04:35.278Z,16.90
2017-11-06T11:07:03.329Z,16.90
2017-11-06T11:09:31.406Z,16.30
2017-11-06T11:11:59.461Z,15.80
2017-11-06T11:16:56.899Z,19.10
2017-11-06T11:19:25.382Z,21.90
2017-11-06T11:21:53.441Z,23.30
2017-11-06T11:24:21.480Z,24.10
2017-11-06T11:26:49.552Z,25.60
2017-11-06T11:29:17.623Z,28.50
2017-11-06T11:31:46.467Z,28.60
2017-11-06T11:34:14.522Z,31.30
2017-11-06T11:36:42.580Z,29.50
2017-11-06T11:39:10.650Z,32.50
2017-11-06T11:41:39.838Z,34.00
2017-11-06T11:44:09.046Z,36.40
2017-11-06T11:46:37.093Z,37.90
2017-11-06T11:49:05.175Z,35.10
2017-11-06T11:51:33.620Z,35.60
2017-11-06T11:54:01.685Z,36.60
2017-11-06T11:56:30.153Z,37.30
2017-11-06T11:58:59.710Z,40.30
2017-11-06T12:01:27.794Z,40.10
2017-11-06T12:03:55.837Z,37.40
2017-11-06T12:06:24.694Z,37.80
2017-11-06T12:08:52.746Z,37.70
2017-11-06T12:11:21.569Z,38.80
2017-11-06T12:13:50.046Z,41.90
2017-11-06T12:16:18.089Z,42.00
2017-11-06T12:18:46.154Z,41.00
2017-11-06T12:21:14.201Z,42.10
2017-11-06T12:23:42.665Z,42.60
2017-11-06T12:26:11.530Z,41.30
2017-11-06T12:28:39.601Z,42.10
2017-11-06T12:31:07.649Z,42.10
2017-11-06T12:33:36.102Z,41.40
2017-11-06T12:36:04.195Z,40.30
2017-11-06T12:38:32.649Z,39.60
2017-11-06T12:41:00.722Z,39.60
2017-11-06T12:43:28.784Z,37.90
2017-11-06T12:45:57.600Z,40.60
2017-11-06T12:48:25.666Z,40.20
2017-11-06T12:50:53.720Z,38.60
2017-11-06T12:53:21.809Z,38.50
2017-11-06T12:55:49.866Z,40.10
2017-11-06T12:58:17.925Z,37.50
2017-11-06T13:00:47.129Z,39.50
2017-11-06T13:03:15.184Z,36.40
2017-11-06T13:05:44.018Z,40.50
2017-11-06T13:08:12.842Z,37.70
2017-11-06T13:10:40.937Z,37.80
2017-11-06T13:13:10.133Z,36.60
2017-11-06T13:15:38.964Z,37.00
2017-11-06T13:18:07.056Z,37.10
2017-11-06T13:20:35.113Z,36.90
2017-11-06T13:23:03.167Z,40.50
2017-11-06T13:25:31.237Z,37.90
2017-11-06T13:27:59.462Z,39.40
2017-11-06T13:30:27.517Z,38.90
2017-11-06T13:32:55.586Z,39.10
2017-11-06T13:35:24.052Z,40.80
2017-11-06T13:37:52.817Z,40.80
2017-11-06T13:40:22.005Z,40.20
2017-11-06T13:42:50.842Z,44.00
2017-11-06T13:45:19.686Z,41.70
2017-11-06T13:47:48.503Z,45.10
2017-11-06T13:50:16.558Z,42.50
2017-11-06T13:52:45.011Z,44.80
2017-11-06T13:55:13.068Z,40.90
2017-11-06T13:57:41.135Z,39.60
2017-11-06T14:00:09.199Z,41.90
2017-11-06T14:02:37.257Z,43.30
2017-11-06T14:05:05.342Z,41.90
2017-11-06T14:07:33.398Z,40.40
2017-11-06T14:10:02.602Z,40.60
2017-11-06T14:12:30.670Z,42.40
2017-11-06T14:14:58.716Z,42.70
2017-11-06T14:17:26.797Z,42.30
2017-11-06T14:19:55.252Z,44.70
2017-11-06T14:22:23.710Z,46.30
2017-11-06T14:24:51.776Z,46.50
2017-11-06T14:27:19.858Z,48.30
2017-11-06T14:29:50.226Z,49.70
2017-11-06T14:32:18.277Z,49.20
2017-11-06T14:34:47.105Z,48.20
2017-11-06T14:37:15.150Z,47.90
2017-11-06T14:39:43.232Z,50.70
2017-11-06T14:42:11.282Z,47.80
2017-11-06T14:44:39.721Z,47.60
2017-11-06T14:47:07.774Z,47.50
2017-11-06T14:49:35.844Z,46.40
2017-11-06T14:52:03.925Z,46.40
2017-11-06T14:54:31.963Z,50.00
2017-11-06T14:57:00.022Z,47.70
2017-11-06T14:59:28.847Z,48.40
2017-11-06T15:01:56.910Z,48.90
2017-11-06T15:04:24.954Z,49.40
2017-11-06T15:06:53.065Z,48.90
2017-11-06T15:09:21.122Z,50.00
2017-11-06T15:11:49.178Z,47.90
2017-11-06T15:14:17.238Z,47.80
2017-11-06T15:16:46.797Z,48.70
2017-11-06T15:19:14.860Z,50.60
2017-11-06T15:21:42.907Z,49.60
2017-11-06T15:24:11.023Z,51.00
2017-11-06T15:26:39.079Z,49.60
2017-11-06T15:29:07.150Z,50.40
2017-11-06T15:31:35.194Z,50.20
2017-11-06T15:34:03.270Z,51.20
2017-11-06T15:36:32.092Z,52.60
2017-11-06T15:39:00.159Z,52.60
2017-11-06T15:41:28.226Z,52.00
2017-11-06T15:43:56.282Z,53.50
2017-11-06T15:46:25.480Z,53.10
2017-11-06T15:48:53.529Z,52.30
2017-11-06T15:51:21.601Z,50.70
2017-11-06T15:53:49.645Z,50.60
2017-11-06T15:56:17.698Z,50.80
2017-11-06T15:58:45.757Z,51.30
2017-11-06T16:01:13.804Z,52.90
2017-11-06T16:03:41.865Z,55.40
2017-11-06T16:06:11.061Z,53.10
2017-11-06T16:08:39.125Z,53.80
2017-11-06T16:11:07.189Z,52.10
2017-11-06T16:13:35.999Z,53.50
2017-11-06T16:16:04.078Z,54.50
2017-11-06T16:18:32.896Z,53.80
2017-11-06T16:21:00.941Z,52.50
2017-11-06T16:23:29.007Z,51.40
2017-11-06T16:25:57.066Z,52.70
2017-11-06T16:28:25.522Z,50.80
2017-11-06T16:30:54.342Z,48.10
2017-11-06T16:33:23.203Z,49.20
2017-11-06T16:35:52.023Z,54.40
2017-11-06T16:38:20.083Z,49.60
2017-11-06T16:40:48.142Z,53.50
2017-11-06T16:43:16.975Z,51.60
2017-11-06T16:45:45.058Z,47.80
2017-11-06T16:48:13.106Z,51.10
2017-11-06T16:50:41.150Z,48.00
2017-11-06T16:53:09.982Z,50.60
2017-11-06T16:55:38.057Z,50.10
2017-11-06T16:58:06.094Z,50.60
2017-11-06T17:00:34.142Z,51.90
2017-11-06T17:03:02.982Z,49.30
2017-11-06T17:05:31.078Z,49.80
2017-11-06T17:07:59.137Z,50.80
2017-11-06T17:10:27.217Z,48.90
2017-11-06T17:12:55.263Z,49.60
2017-11-06T17:15:23.301Z,49.80
2017-11-06T17:17:52.135Z,50.50
2017-11-06T17:20:20.227Z,48.50
2017-11-06T17:22:48.285Z,52.10
2017-11-06T17:25:16.333Z,52.60
2017-11-06T17:27:46.262Z,50.50
2017-11-06T17:30:14.727Z,53.40
2017-11-06T17:32:42.761Z,53.00
2017-11-06T17:35:11.595Z,52.70
2017-11-06T17:37:39.641Z,52.20
2017-11-06T17:40:08.465Z,52.50
2017-11-06T17:42:36.522Z,51.40
2017-11-06T17:45:04.581Z,50.90
2017-11-06T17:47:32.629Z,51.60
2017-11-06T17:50:01.495Z,52.00
2017-11-06T17:52:29.521Z,51.70
2017-11-06T17:54:57.677Z,50.90
2017-11-06T17:57:26.503Z,52.50
2017-11-06T17:59:54.562Z,50.00
2017-11-06T18:02:22.760Z,50.30
2017-11-06T18:04:51.170Z,50.80
2017-11-06T18:07:19.259Z,51.90
2017-11-06T18:09:47.704Z,53.30
2017-11-06T18:12:15.766Z,51.70
2017-11-06T18:14:44.229Z,53.30
2017-11-06T18:17:12.282Z,52.40
2017-11-06T18:19:40.351Z,53.10
2017-11-06T18:22:09.157Z,53.50
2017-11-06T18:24:37.217Z,51.50
2017-11-06T18:27:05.665Z,52.30
2017-11-06T18:29:34.490Z,51.80
2017-11-06T18:32:03.069Z,51.20
2017-11-06T18:34:31.127Z,50.90
2017-11-06T18:36:59.967Z,51.30
2017-11-06T18:39:28.025Z,50.60
2017-11-06T18:41:56.178Z,50.50
2017-11-06T18:44:25.758Z,50.80
2017-11-06T18:46:54.577Z,51.40
2017-11-06T18:49:23.385Z,47.70
2017-11-06T18:51:51.445Z,51.90
2017-11-06T18:54:19.497Z,52.10
2017-11-06T18:56:48.811Z,52.60
2017-11-06T18:59:16.862Z,51.20
2017-11-06T19:01:45.678Z,48.20
2017-11-06T19:04:13.736Z,50.50
2017-11-06T19:06:41.801Z,48.60
2017-11-06T19:09:09.865Z,49.30
2017-11-06T19:11:38.688Z,49.80
2017-11-06T19:14:06.739Z,51.90
2017-11-06T19:16:34.793Z,50.60
2017-11-06T19:19:03.617Z,51.50
2017-11-06T19:21:31.705Z,52.20
2017-11-06T19:24:00.181Z,52.50
2017-11-06T19:26:28.242Z,53.70
2017-11-06T19:31:25.610Z,56.70
2017-11-06T19:33:53.677Z,55.70
2017-11-06T19:36:21.722Z,55.20
2017-11-06T19:38:50.543Z,57.70
2017-11-06T19:41:18.607Z,57.10
2017-11-06T19:43:46.715Z,56.20
2017-11-06T19:46:15.170Z,58.60
2017-11-06T19:48:43.222Z,58.90
2017-11-06T19:51:11.680Z,57.60
2017-11-06T19:53:39.813Z,58.40
2017-11-06T19:56:08.572Z,58.20
2017-11-06T19:58:36.702Z,58.10
2017-11-06T20:03:35.211Z,58.00
2017-11-06T20:08:33.781Z,59.40
2017-11-06T20:11:03.806Z,60.00
2017-11-06T20:13:32.638Z,59.80
2017-11-06T20:16:01.469Z,62.30
2017-11-06T20:18:29.541Z,62.80
2017-11-06T20:20:57.981Z,64.00
2017-11-06T20:23:26.793Z,63.90
2017-11-06T20:25:58.888Z,64.10
2017-11-06T20:28:26.934Z,63.00
2017-11-06T20:30:56.126Z,65.50
2017-11-06T20:33:24.963Z,63.70
2017-11-06T20:35:53.017Z,67.60
2017-11-06T20:38:22.221Z,67.90
2017-11-06T20:40:51.050Z,67.00
2017-11-06T20:43:19.869Z,66.80
2017-11-06T20:45:47.921Z,65.30
2017-11-06T20:48:15.993Z,63.10
2017-11-06T20:50:45.183Z,62.00
2017-11-06T20:53:14.872Z,66.90
2017-11-06T20:58:12.992Z,65.60
2017-11-06T21:00:41.048Z,64.00
2017-11-06T21:03:09.871Z,64.70
2017-11-06T21:05:37.934Z,61.50
2017-11-06T21:08:05.993Z,61.70
2017-11-06T21:10:34.826Z,61.70
2017-11-06T21:13:03.264Z,60.50
2017-11-06T21:15:32.098Z,61.20
2017-11-06T21:18:00.145Z,63.20
2017-11-06T21:20:28.184Z,61.40
2017-11-06T21:22:57.034Z,62.80
2017-11-06T21:25:25.097Z,62.10
2017-11-06T21:27:53.243Z,61.70
2017-11-06T21:30:26.913Z,59.90
2017-11-06T21:32:55.741Z,60.30
2017-11-06T21:35:24.192Z,59.90
2017-11-06T21:37:52.996Z,61.20
2017-11-06T21:40:21.053Z,58.60
2017-11-06T21:42:49.861Z,60.40
2017-11-06T21:45:17.922Z,59.00
2017-11-06T21:47:46.742Z,58.50
2017-11-06T21:50:15.185Z,58.70
2017-11-06T21:52:44.001Z,58.00
2017-11-06T21:55:12.829Z,56.30
2017-11-06T21:57:40.883Z,56.30
2017-11-06T22:00:09.338Z,55.70
2017-11-06T22:02:37.382Z,56.00
2017-11-06T22:05:06.197Z,56.60
2017-11-06T22:07:34.249Z,55.30
2017-11-06T22:10:03.056Z,55.80
2017-11-06T22:12:31.880Z,56.00
2017-11-06T22:14:59.946Z,56.00
2017-11-06T22:17:27.990Z,55.30
2017-11-06T22:19:56.058Z,55.70
2017-11-06T22:22:24.111Z,54.90
2017-11-06T22:24:52.563Z,55.00
2017-11-06T22:27:20.623Z,55.00
2017-11-06T22:29:48.661Z,56.70
2017-11-06T22:32:16.724Z,67.00
2017-11-06T22:34:45.530Z,65.10
2017-11-06T22:37:13.583Z,55.10
2017-11-06T22:39:41.650Z,56.00
2017-11-06T22:42:09.709Z,58.80
2017-11-06T22:44:38.773Z,53.30
2017-11-06T22:47:07.202Z,54.00
2017-11-06T22:49:35.261Z,55.70
2017-11-06T22:52:04.072Z,58.90
2017-11-06T22:54:32.125Z,58.80
2017-11-06T22:57:00.186Z,59.40
2017-11-06T22:59:28.995Z,62.10
2017-11-06T23:01:57.067Z,60.20
2017-11-06T23:04:25.113Z,61.30
2017-11-06T23:06:53.930Z,59.90
2017-11-06T23:09:21.980Z,59.40
2017-11-06T23:11:50.803Z,60.20
2017-11-06T23:14:18.861Z,58.80
2017-11-06T23:16:46.900Z,58.70
2017-11-06T23:19:14.950Z,59.20
2017-11-06T23:21:44.504Z,60.30
2017-11-06T23:24:12.554Z,58.40
2017-11-06T23:26:40.606Z,58.90
2017-11-06T23:29:08.645Z,57.00
2017-11-06T23:31:37.109Z,57.50
2017-11-06T23:34:05.556Z,57.20
2017-11-06T23:36:33.597Z,57.70
2017-11-06T23:39:01.644Z,57.00
2017-11-06T23:41:29.689Z,57.00
2017-11-06T23:43:58.501Z,58.10
2017-11-06T23:46:26.541Z,58.10
2017-11-06T23:48:55.377Z,58.20
2017-11-06T23:51:23.421Z,57.50
2017-11-06T23:53:51.466Z,58.20
2017-11-06T23:56:20.282Z,57.20
2017-11-06T23:58:48.329Z,57.40
